sensor_id;sensor_type;location;lat;lon;timestamp;P1;durP1;ratioP1;P2;durP2;ratioP2
59830;SDS011;45711;50.108;13.712;2022-08-07T00:02:04;3.33;;;1.52;;
59830;SDS011;45711;50.108;13.712;2022-08-07T00:04:29;4.88;;;2.55;;
59830;SDS011;45711;50.108;13.712;2022-08-07T00:06:55;2.85;;;1.30;;
59830;SDS011;45711;50.108;13.712;2022-08-07T00:09:22;7.05;;;1.30;;
59830;SDS011;45711;50.108;13.712;2022-08-07T00:11:48;3.63;;;1.23;;
59830;SDS011;45711;50.108;13.712;2022-08-07T00:14:13;1.70;;;1.23;;
59830;SDS011;45711;50.108;13.712;2022-08-07T00:16:39;2.00;;;1.20;;
59830;SDS011;45711;50.108;13.712;2022-08-07T00:19:04;4.93;;;1.20;;
59830;SDS011;45711;50.108;13.712;2022-08-07T00:21:30;2.20;;;1.80;;
59830;SDS011;45711;50.108;13.712;2022-08-07T00:23:55;2.75;;;1.30;;
59830;SDS011;45711;50.108;13.712;2022-08-07T00:26:22;9.40;;;1.48;;
59830;SDS011;45711;50.108;13.712;2022-08-07T00:28:48;3.20;;;1.45;;
59830;SDS011;45711;50.108;13.712;2022-08-07T00:31:13;2.83;;;1.83;;
59830;SDS011;45711;50.108;13.712;2022-08-07T00:33:39;4.20;;;1.42;;
59830;SDS011;45711;50.108;13.712;2022-08-07T00:36:05;3.72;;;1.30;;
59830;SDS011;45711;50.108;13.712;2022-08-07T00:38:32;2.72;;;1.30;;
59830;SDS011;45711;50.108;13.712;2022-08-07T00:41:00;3.95;;;1.20;;
59830;SDS011;45711;50.108;13.712;2022-08-07T00:43:27;5.07;;;1.00;;
59830;SDS011;45711;50.108;13.712;2022-08-07T00:45:53;1.23;;;0.85;;
59830;SDS011;45711;50.108;13.712;2022-08-07T00:48:19;5.90;;;1.15;;
59830;SDS011;45711;50.108;13.712;2022-08-07T00:50:44;2.90;;;1.10;;
59830;SDS011;45711;50.108;13.712;2022-08-07T00:53:10;3.10;;;1.15;;
59830;SDS011;45711;50.108;13.712;2022-08-07T00:55:35;2.72;;;1.10;;
59830;SDS011;45711;50.108;13.712;2022-08-07T00:58:01;3.45;;;1.80;;
59830;SDS011;45711;50.108;13.712;2022-08-07T01:00:28;3.13;;;1.60;;
59830;SDS011;45711;50.108;13.712;2022-08-07T01:02:53;3.95;;;1.40;;
59830;SDS011;45711;50.108;13.712;2022-08-07T01:05:19;4.05;;;1.02;;
59830;SDS011;45711;50.108;13.712;2022-08-07T01:07:45;1.60;;;1.10;;
59830;SDS011;45711;50.108;13.712;2022-08-07T01:10:11;1.90;;;1.10;;
59830;SDS011;45711;50.108;13.712;2022-08-07T01:12:37;2.30;;;1.10;;
59830;SDS011;45711;50.108;13.712;2022-08-07T01:15:05;4.35;;;1.27;;
59830;SDS011;45711;50.108;13.712;2022-08-07T01:17:32;8.50;;;1.13;;
59830;SDS011;45711;50.108;13.712;2022-08-07T01:20:00;3.05;;;1.02;;
59830;SDS011;45711;50.108;13.712;2022-08-07T01:22:30;8.55;;;1.10;;
59830;SDS011;45711;50.108;13.712;2022-08-07T01:24:55;2.95;;;1.10;;
59830;SDS011;45711;50.108;13.712;2022-08-07T01:27:22;4.38;;;1.30;;
59830;SDS011;45711;50.108;13.712;2022-08-07T01:29:47;4.88;;;1.50;;
59830;SDS011;45711;50.108;13.712;2022-08-07T01:32:14;3.25;;;0.80;;
59830;SDS011;45711;50.108;13.712;2022-08-07T01:34:39;4.57;;;1.10;;
59830;SDS011;45711;50.108;13.712;2022-08-07T01:37:08;3.50;;;1.10;;
59830;SDS011;45711;50.108;13.712;2022-08-07T01:39:37;7.70;;;1.20;;
59830;SDS011;45711;50.108;13.712;2022-08-07T01:42:03;2.67;;;1.02;;
59830;SDS011;45711;50.108;13.712;2022-08-07T01:44:29;1.77;;;1.00;;
59830;SDS011;45711;50.108;13.712;2022-08-07T01:46:55;2.95;;;1.10;;
59830;SDS011;45711;50.108;13.712;2022-08-07T01:49:22;2.63;;;1.10;;
59830;SDS011;45711;50.108;13.712;2022-08-07T01:51:48;1.95;;;0.82;;
59830;SDS011;45711;50.108;13.712;2022-08-07T01:54:14;1.10;;;0.82;;
59830;SDS011;45711;50.108;13.712;2022-08-07T01:56:47;3.42;;;1.00;;
59830;SDS011;45711;50.108;13.712;2022-08-07T01:59:17;1.60;;;0.80;;
59830;SDS011;45711;50.108;13.712;2022-08-07T02:01:50;4.03;;;1.10;;
59830;SDS011;45711;50.108;13.712;2022-08-07T02:04:23;6.53;;;1.00;;
59830;SDS011;45711;50.108;13.712;2022-08-07T02:06:51;3.28;;;0.88;;
59830;SDS011;45711;50.108;13.712;2022-08-07T02:09:20;2.58;;;1.00;;
59830;SDS011;45711;50.108;13.712;2022-08-07T02:11:49;2.05;;;0.93;;
59830;SDS011;45711;50.108;13.712;2022-08-07T02:14:17;2.28;;;0.95;;
59830;SDS011;45711;50.108;13.712;2022-08-07T02:16:44;3.45;;;1.27;;
59830;SDS011;45711;50.108;13.712;2022-08-07T02:19:12;3.70;;;1.45;;
59830;SDS011;45711;50.108;13.712;2022-08-07T02:21:38;4.20;;;1.20;;
59830;SDS011;45711;50.108;13.712;2022-08-07T02:24:06;4.88;;;1.52;;
59830;SDS011;45711;50.108;13.712;2022-08-07T02:26:33;1.70;;;1.00;;
59830;SDS011;45711;50.108;13.712;2022-08-07T02:29:04;6.28;;;1.00;;
59830;SDS011;45711;50.108;13.712;2022-08-07T02:31:31;4.38;;;0.90;;
59830;SDS011;45711;50.108;13.712;2022-08-07T02:33:58;1.40;;;1.00;;
59830;SDS011;45711;50.108;13.712;2022-08-07T02:36:24;1.52;;;0.93;;
59830;SDS011;45711;50.108;13.712;2022-08-07T02:38:52;2.72;;;0.93;;
59830;SDS011;45711;50.108;13.712;2022-08-07T02:41:20;2.53;;;0.90;;
59830;SDS011;45711;50.108;13.712;2022-08-07T02:43:46;2.03;;;0.90;;
59830;SDS011;45711;50.108;13.712;2022-08-07T02:46:14;3.47;;;0.90;;
59830;SDS011;45711;50.108;13.712;2022-08-07T02:48:42;2.78;;;1.08;;
59830;SDS011;45711;50.108;13.712;2022-08-07T02:51:09;2.67;;;1.00;;
59830;SDS011;45711;50.108;13.712;2022-08-07T02:53:37;2.00;;;1.02;;
59830;SDS011;45711;50.108;13.712;2022-08-07T02:56:07;3.40;;;1.08;;
59830;SDS011;45711;50.108;13.712;2022-08-07T02:58:37;4.32;;;1.10;;
59830;SDS011;45711;50.108;13.712;2022-08-07T03:01:04;1.90;;;1.10;;
59830;SDS011;45711;50.108;13.712;2022-08-07T03:03:32;4.25;;;1.00;;
59830;SDS011;45711;50.108;13.712;2022-08-07T03:05:58;1.52;;;0.90;;
59830;SDS011;45711;50.108;13.712;2022-08-07T03:08:26;2.28;;;1.40;;
59830;SDS011;45711;50.108;13.712;2022-08-07T03:10:52;2.83;;;1.20;;
59830;SDS011;45711;50.108;13.712;2022-08-07T03:13:19;1.50;;;1.00;;
59830;SDS011;45711;50.108;13.712;2022-08-07T03:15:45;4.00;;;1.50;;
59830;SDS011;45711;50.108;13.712;2022-08-07T03:18:12;10.55;;;1.30;;
59830;SDS011;45711;50.108;13.712;2022-08-07T03:20:41;3.05;;;1.23;;
59830;SDS011;45711;50.108;13.712;2022-08-07T03:23:07;8.13;;;1.10;;
59830;SDS011;45711;50.108;13.712;2022-08-07T03:25:35;4.88;;;0.90;;
59830;SDS011;45711;50.108;13.712;2022-08-07T03:28:03;9.15;;;1.00;;
59830;SDS011;45711;50.108;13.712;2022-08-07T03:30:30;6.30;;;1.02;;
59830;SDS011;45711;50.108;13.712;2022-08-07T03:32:56;3.95;;;1.20;;
59830;SDS011;45711;50.108;13.712;2022-08-07T03:35:25;1.83;;;1.25;;
59830;SDS011;45711;50.108;13.712;2022-08-07T03:37:55;2.75;;;1.30;;
59830;SDS011;45711;50.108;13.712;2022-08-07T03:40:23;1.75;;;0.90;;
59830;SDS011;45711;50.108;13.712;2022-08-07T03:42:49;2.47;;;1.10;;
59830;SDS011;45711;50.108;13.712;2022-08-07T03:45:15;2.33;;;1.10;;
59830;SDS011;45711;50.108;13.712;2022-08-07T03:47:42;2.17;;;0.95;;
59830;SDS011;45711;50.108;13.712;2022-08-07T03:50:08;1.35;;;0.95;;
59830;SDS011;45711;50.108;13.712;2022-08-07T03:52:34;3.85;;;1.17;;
59830;SDS011;45711;50.108;13.712;2022-08-07T03:55:03;2.70;;;0.93;;
59830;SDS011;45711;50.108;13.712;2022-08-07T03:57:30;5.10;;;1.30;;
59830;SDS011;45711;50.108;13.712;2022-08-07T03:59:57;2.97;;;1.13;;
59830;SDS011;45711;50.108;13.712;2022-08-07T04:02:25;3.35;;;1.20;;
59830;SDS011;45711;50.108;13.712;2022-08-07T04:04:51;3.00;;;1.20;;
59830;SDS011;45711;50.108;13.712;2022-08-07T04:07:17;1.55;;;1.13;;
59830;SDS011;45711;50.108;13.712;2022-08-07T04:09:43;1.98;;;1.20;;
59830;SDS011;45711;50.108;13.712;2022-08-07T04:12:11;6.80;;;1.38;;
59830;SDS011;45711;50.108;13.712;2022-08-07T04:14:38;1.25;;;1.00;;
59830;SDS011;45711;50.108;13.712;2022-08-07T04:17:04;1.55;;;1.10;;
59830;SDS011;45711;50.108;13.712;2022-08-07T04:19:31;1.92;;;0.93;;
59830;SDS011;45711;50.108;13.712;2022-08-07T04:21:56;4.18;;;1.02;;
59830;SDS011;45711;50.108;13.712;2022-08-07T04:24:22;3.33;;;1.25;;
59830;SDS011;45711;50.108;13.712;2022-08-07T04:26:49;2.90;;;1.08;;
59830;SDS011;45711;50.108;13.712;2022-08-07T04:29:16;4.93;;;1.40;;
59830;SDS011;45711;50.108;13.712;2022-08-07T04:31:42;3.53;;;1.40;;
59830;SDS011;45711;50.108;13.712;2022-08-07T04:34:08;3.35;;;1.15;;
59830;SDS011;45711;50.108;13.712;2022-08-07T04:36:34;1.75;;;0.85;;
59830;SDS011;45711;50.108;13.712;2022-08-07T04:39:00;3.15;;;1.25;;
59830;SDS011;45711;50.108;13.712;2022-08-07T04:41:26;4.90;;;1.55;;
59830;SDS011;45711;50.108;13.712;2022-08-07T04:43:52;1.95;;;1.15;;
59830;SDS011;45711;50.108;13.712;2022-08-07T04:46:22;5.10;;;1.50;;
59830;SDS011;45711;50.108;13.712;2022-08-07T04:51:25;1.83;;;1.25;;
59830;SDS011;45711;50.108;13.712;2022-08-07T04:54:00;5.68;;;1.55;;
59830;SDS011;45711;50.108;13.712;2022-08-07T04:56:36;4.53;;;1.20;;
59830;SDS011;45711;50.108;13.712;2022-08-07T04:59:07;4.55;;;1.55;;
59830;SDS011;45711;50.108;13.712;2022-08-07T05:01:41;4.05;;;1.50;;
59830;SDS011;45711;50.108;13.712;2022-08-07T05:04:12;6.88;;;1.30;;
59830;SDS011;45711;50.108;13.712;2022-08-07T05:06:42;6.60;;;1.23;;
59830;SDS011;45711;50.108;13.712;2022-08-07T05:09:17;3.67;;;1.35;;
59830;SDS011;45711;50.108;13.712;2022-08-07T05:11:49;1.73;;;1.25;;
59830;SDS011;45711;50.108;13.712;2022-08-07T05:14:18;7.20;;;1.73;;
59830;SDS011;45711;50.108;13.712;2022-08-07T05:16:50;3.58;;;1.10;;
59830;SDS011;45711;50.108;13.712;2022-08-07T05:19:20;2.97;;;1.55;;
59830;SDS011;45711;50.108;13.712;2022-08-07T05:21:51;5.20;;;1.30;;
59830;SDS011;45711;50.108;13.712;2022-08-07T05:24:19;6.53;;;1.60;;
59830;SDS011;45711;50.108;13.712;2022-08-07T05:26:47;2.83;;;1.27;;
59830;SDS011;45711;50.108;13.712;2022-08-07T05:29:16;4.03;;;1.38;;
59830;SDS011;45711;50.108;13.712;2022-08-07T05:31:46;5.22;;;1.83;;
59830;SDS011;45711;50.108;13.712;2022-08-07T05:34:15;4.85;;;1.50;;
59830;SDS011;45711;50.108;13.712;2022-08-07T05:36:42;2.33;;;1.30;;
59830;SDS011;45711;50.108;13.712;2022-08-07T05:39:10;3.67;;;1.10;;
59830;SDS011;45711;50.108;13.712;2022-08-07T05:41:37;6.30;;;1.30;;
59830;SDS011;45711;50.108;13.712;2022-08-07T05:44:03;3.58;;;1.33;;
59830;SDS011;45711;50.108;13.712;2022-08-07T05:46:29;2.38;;;1.30;;
59830;SDS011;45711;50.108;13.712;2022-08-07T05:48:55;4.82;;;1.17;;
59830;SDS011;45711;50.108;13.712;2022-08-07T05:51:24;7.10;;;1.52;;
59830;SDS011;45711;50.108;13.712;2022-08-07T05:53:49;1.83;;;1.02;;
59830;SDS011;45711;50.108;13.712;2022-08-07T05:56:15;3.25;;;1.10;;
59830;SDS011;45711;50.108;13.712;2022-08-07T05:58:43;4.35;;;1.42;;
59830;SDS011;45711;50.108;13.712;2022-08-07T06:01:11;3.38;;;1.13;;
59830;SDS011;45711;50.108;13.712;2022-08-07T06:03:38;3.08;;;1.35;;
59830;SDS011;45711;50.108;13.712;2022-08-07T06:06:05;3.70;;;1.13;;
59830;SDS011;45711;50.108;13.712;2022-08-07T06:08:33;34.20;;;3.05;;
59830;SDS011;45711;50.108;13.712;2022-08-07T06:10:59;3.13;;;1.30;;
59830;SDS011;45711;50.108;13.712;2022-08-07T06:13:25;3.75;;;1.15;;
59830;SDS011;45711;50.108;13.712;2022-08-07T06:15:50;5.28;;;1.42;;
59830;SDS011;45711;50.108;13.712;2022-08-07T06:18:20;4.57;;;0.90;;
59830;SDS011;45711;50.108;13.712;2022-08-07T06:20:47;3.83;;;1.10;;
59830;SDS011;45711;50.108;13.712;2022-08-07T06:23:13;3.92;;;0.90;;
59830;SDS011;45711;50.108;13.712;2022-08-07T06:25:40;2.45;;;1.30;;
59830;SDS011;45711;50.108;13.712;2022-08-07T06:28:07;7.65;;;0.95;;
59830;SDS011;45711;50.108;13.712;2022-08-07T06:30:34;4.10;;;2.42;;
59830;SDS011;45711;50.108;13.712;2022-08-07T06:33:01;11.43;;;1.60;;
59830;SDS011;45711;50.108;13.712;2022-08-07T06:35:27;2.17;;;1.40;;
59830;SDS011;45711;50.108;13.712;2022-08-07T06:37:53;3.97;;;0.93;;
59830;SDS011;45711;50.108;13.712;2022-08-07T06:40:20;5.45;;;1.20;;
59830;SDS011;45711;50.108;13.712;2022-08-07T06:42:47;4.15;;;1.10;;
59830;SDS011;45711;50.108;13.712;2022-08-07T06:45:14;3.42;;;1.20;;
59830;SDS011;45711;50.108;13.712;2022-08-07T06:47:42;3.40;;;0.93;;
59830;SDS011;45711;50.108;13.712;2022-08-07T06:50:08;6.03;;;1.13;;
59830;SDS011;45711;50.108;13.712;2022-08-07T06:52:35;3.58;;;1.20;;
59830;SDS011;45711;50.108;13.712;2022-08-07T06:55:03;3.63;;;1.50;;
59830;SDS011;45711;50.108;13.712;2022-08-07T06:57:58;6.30;;;1.40;;
59830;SDS011;45711;50.108;13.712;2022-08-07T07:00:34;3.38;;;1.40;;
59830;SDS011;45711;50.108;13.712;2022-08-07T07:03:05;2.38;;;1.35;;
59830;SDS011;45711;50.108;13.712;2022-08-07T07:05:32;3.28;;;1.30;;
59830;SDS011;45711;50.108;13.712;2022-08-07T07:08:01;2.47;;;1.50;;
59830;SDS011;45711;50.108;13.712;2022-08-07T07:10:27;2.55;;;1.90;;
59830;SDS011;45711;50.108;13.712;2022-08-07T07:12:54;2.75;;;1.80;;
59830;SDS011;45711;50.108;13.712;2022-08-07T07:15:25;3.88;;;1.98;;
59830;SDS011;45711;50.108;13.712;2022-08-07T07:17:53;12.00;;;2.38;;
59830;SDS011;45711;50.108;13.712;2022-08-07T07:20:24;5.40;;;1.90;;
59830;SDS011;45711;50.108;13.712;2022-08-07T07:22:55;4.32;;;2.20;;
59830;SDS011;45711;50.108;13.712;2022-08-07T07:25:20;3.67;;;1.85;;
59830;SDS011;45711;50.108;13.712;2022-08-07T07:27:49;2.38;;;1.60;;
59830;SDS011;45711;50.108;13.712;2022-08-07T07:30:19;3.08;;;1.50;;
59830;SDS011;45711;50.108;13.712;2022-08-07T07:32:48;3.25;;;1.45;;
59830;SDS011;45711;50.108;13.712;2022-08-07T07:35:17;5.25;;;1.30;;
59830;SDS011;45711;50.108;13.712;2022-08-07T07:37:43;3.63;;;1.27;;
59830;SDS011;45711;50.108;13.712;2022-08-07T07:40:14;4.90;;;1.17;;
59830;SDS011;45711;50.108;13.712;2022-08-07T07:42:41;1.35;;;1.00;;
59830;SDS011;45711;50.108;13.712;2022-08-07T07:45:09;4.43;;;1.33;;
59830;SDS011;45711;50.108;13.712;2022-08-07T07:47:38;6.45;;;1.25;;
59830;SDS011;45711;50.108;13.712;2022-08-07T07:50:07;4.22;;;1.60;;
59830;SDS011;45711;50.108;13.712;2022-08-07T07:52:35;4.72;;;1.00;;
59830;SDS011;45711;50.108;13.712;2022-08-07T07:55:03;3.00;;;1.10;;
59830;SDS011;45711;50.108;13.712;2022-08-07T07:57:29;4.68;;;0.80;;
59830;SDS011;45711;50.108;13.712;2022-08-07T07:59:57;2.67;;;0.98;;
59830;SDS011;45711;50.108;13.712;2022-08-07T08:02:27;3.72;;;1.00;;
59830;SDS011;45711;50.108;13.712;2022-08-07T08:04:58;2.25;;;0.88;;
59830;SDS011;45711;50.108;13.712;2022-08-07T08:07:29;36.22;;;1.80;;
59830;SDS011;45711;50.108;13.712;2022-08-07T08:09:56;2.85;;;0.80;;
59830;SDS011;45711;50.108;13.712;2022-08-07T08:12:22;1.52;;;0.75;;
59830;SDS011;45711;50.108;13.712;2022-08-07T08:14:48;3.05;;;0.73;;
59830;SDS011;45711;50.108;13.712;2022-08-07T08:17:14;1.50;;;0.70;;
59830;SDS011;45711;50.108;13.712;2022-08-07T08:19:41;1.02;;;0.55;;
59830;SDS011;45711;50.108;13.712;2022-08-07T08:22:10;2.08;;;0.52;;
59830;SDS011;45711;50.108;13.712;2022-08-07T08:24:56;1.00;;;0.60;;
59830;SDS011;45711;50.108;13.712;2022-08-07T08:27:41;2.33;;;1.15;;
59830;SDS011;45711;50.108;13.712;2022-08-07T08:30:09;2.55;;;0.65;;
59830;SDS011;45711;50.108;13.712;2022-08-07T08:32:39;2.53;;;0.70;;
59830;SDS011;45711;50.108;13.712;2022-08-07T08:35:06;1.83;;;0.70;;
59830;SDS011;45711;50.108;13.712;2022-08-07T08:37:37;2.78;;;0.75;;
59830;SDS011;45711;50.108;13.712;2022-08-07T08:40:09;3.63;;;0.80;;
59830;SDS011;45711;50.108;13.712;2022-08-07T08:42:40;1.40;;;0.57;;
59830;SDS011;45711;50.108;13.712;2022-08-07T08:45:11;3.92;;;0.88;;
59830;SDS011;45711;50.108;13.712;2022-08-07T08:47:48;4.05;;;0.88;;
59830;SDS011;45711;50.108;13.712;2022-08-07T08:50:22;3.33;;;0.70;;
59830;SDS011;45711;50.108;13.712;2022-08-07T08:52:54;1.50;;;0.43;;
59830;SDS011;45711;50.108;13.712;2022-08-07T08:55:29;2.38;;;0.70;;
59830;SDS011;45711;50.108;13.712;2022-08-07T08:58:00;1.73;;;0.77;;
59830;SDS011;45711;50.108;13.712;2022-08-07T09:00:31;1.83;;;0.70;;
59830;SDS011;45711;50.108;13.712;2022-08-07T09:03:05;2.42;;;0.95;;
59830;SDS011;45711;50.108;13.712;2022-08-07T09:05:40;5.25;;;0.80;;
59830;SDS011;45711;50.108;13.712;2022-08-07T09:08:16;1.15;;;0.70;;
59830;SDS011;45711;50.108;13.712;2022-08-07T09:10:50;2.20;;;0.88;;
59830;SDS011;45711;50.108;13.712;2022-08-07T09:13:29;2.80;;;0.70;;
59830;SDS011;45711;50.108;13.712;2022-08-07T09:16:01;2.55;;;0.70;;
59830;SDS011;45711;50.108;13.712;2022-08-07T09:18:39;1.95;;;0.70;;
59830;SDS011;45711;50.108;13.712;2022-08-07T09:21:25;3.83;;;0.90;;
59830;SDS011;45711;50.108;13.712;2022-08-07T09:24:04;4.97;;;0.90;;
59830;SDS011;45711;50.108;13.712;2022-08-07T09:26:41;4.88;;;0.82;;
59830;SDS011;45711;50.108;13.712;2022-08-07T09:29:12;1.27;;;0.60;;
59830;SDS011;45711;50.108;13.712;2022-08-07T09:31:50;1.50;;;0.60;;
59830;SDS011;45711;50.108;13.712;2022-08-07T09:34:23;4.10;;;0.70;;
59830;SDS011;45711;50.108;13.712;2022-08-07T09:36:54;2.20;;;0.60;;
59830;SDS011;45711;50.108;13.712;2022-08-07T09:42:18;4.28;;;0.80;;
59830;SDS011;45711;50.108;13.712;2022-08-07T09:45:06;4.05;;;0.73;;
59830;SDS011;45711;50.108;13.712;2022-08-07T09:47:37;1.45;;;0.50;;
59830;SDS011;45711;50.108;13.712;2022-08-07T09:50:12;2.00;;;0.77;;
59830;SDS011;45711;50.108;13.712;2022-08-07T09:53:00;0.80;;;0.43;;
59830;SDS011;45711;50.108;13.712;2022-08-07T09:55:30;1.50;;;0.50;;
59830;SDS011;45711;50.108;13.712;2022-08-07T09:58:17;2.38;;;0.60;;
59830;SDS011;45711;50.108;13.712;2022-08-07T10:00:56;5.63;;;0.70;;
59830;SDS011;45711;50.108;13.712;2022-08-07T10:06:41;1.80;;;0.60;;
59830;SDS011;45711;50.108;13.712;2022-08-07T10:09:20;1.52;;;0.68;;
59830;SDS011;45711;50.108;13.712;2022-08-07T10:12:04;2.67;;;0.50;;
59830;SDS011;45711;50.108;13.712;2022-08-07T10:17:47;2.03;;;0.70;;
59830;SDS011;45711;50.108;13.712;2022-08-07T10:20:24;2.58;;;0.50;;
59830;SDS011;45711;50.108;13.712;2022-08-07T10:23:01;3.55;;;0.73;;
59830;SDS011;45711;50.108;13.712;2022-08-07T10:25:38;2.00;;;0.52;;
59830;SDS011;45711;50.108;13.712;2022-08-07T10:28:19;1.25;;;0.80;;
59830;SDS011;45711;50.108;13.712;2022-08-07T10:31:05;3.10;;;0.65;;
59830;SDS011;45711;50.108;13.712;2022-08-07T10:33:42;3.97;;;0.55;;
59830;SDS011;45711;50.108;13.712;2022-08-07T10:36:39;2.47;;;0.60;;
59830;SDS011;45711;50.108;13.712;2022-08-07T10:39:27;1.45;;;0.52;;
59830;SDS011;45711;50.108;13.712;2022-08-07T10:42:04;1.67;;;0.65;;
59830;SDS011;45711;50.108;13.712;2022-08-07T10:44:39;4.03;;;0.60;;
59830;SDS011;45711;50.108;13.712;2022-08-07T10:50:00;4.63;;;0.60;;
59830;SDS011;45711;50.108;13.712;2022-08-07T10:52:31;1.85;;;0.55;;
59830;SDS011;45711;50.108;13.712;2022-08-07T10:55:06;2.35;;;0.80;;
59830;SDS011;45711;50.108;13.712;2022-08-07T10:57:38;2.53;;;0.55;;
59830;SDS011;45711;50.108;13.712;2022-08-07T11:00:12;3.83;;;0.60;;
59830;SDS011;45711;50.108;13.712;2022-08-07T11:02:44;6.88;;;0.98;;
59830;SDS011;45711;50.108;13.712;2022-08-07T11:05:28;2.22;;;0.70;;
59830;SDS011;45711;50.108;13.712;2022-08-07T11:08:01;3.53;;;0.55;;
59830;SDS011;45711;50.108;13.712;2022-08-07T11:10:37;2.72;;;0.80;;
59830;SDS011;45711;50.108;13.712;2022-08-07T11:13:07;1.17;;;0.50;;
59830;SDS011;45711;50.108;13.712;2022-08-07T11:15:40;1.90;;;0.63;;
59830;SDS011;45711;50.108;13.712;2022-08-07T11:18:11;0.63;;;0.60;;
59830;SDS011;45711;50.108;13.712;2022-08-07T11:20:42;1.77;;;0.40;;
59830;SDS011;45711;50.108;13.712;2022-08-07T11:23:16;4.57;;;0.60;;
59830;SDS011;45711;50.108;13.712;2022-08-07T11:28:15;1.63;;;0.68;;
59830;SDS011;45711;50.108;13.712;2022-08-07T11:30:48;3.00;;;0.70;;
59830;SDS011;45711;50.108;13.712;2022-08-07T11:33:22;3.42;;;0.50;;
59830;SDS011;45711;50.108;13.712;2022-08-07T11:35:55;3.92;;;0.63;;
59830;SDS011;45711;50.108;13.712;2022-08-07T11:38:31;1.48;;;0.80;;
59830;SDS011;45711;50.108;13.712;2022-08-07T11:41:02;2.78;;;0.60;;
59830;SDS011;45711;50.108;13.712;2022-08-07T11:43:33;1.42;;;0.60;;
59830;SDS011;45711;50.108;13.712;2022-08-07T11:46:10;1.00;;;0.50;;
59830;SDS011;45711;50.108;13.712;2022-08-07T11:49:06;2.58;;;0.65;;
59830;SDS011;45711;50.108;13.712;2022-08-07T11:51:55;5.47;;;0.60;;
59830;SDS011;45711;50.108;13.712;2022-08-07T11:54:32;2.67;;;0.60;;
59830;SDS011;45711;50.108;13.712;2022-08-07T11:57:08;2.38;;;0.60;;
59830;SDS011;45711;50.108;13.712;2022-08-07T11:59:50;1.40;;;0.60;;
59830;SDS011;45711;50.108;13.712;2022-08-07T12:02:32;1.88;;;0.50;;
59830;SDS011;45711;50.108;13.712;2022-08-07T12:05:14;1.73;;;0.50;;
59830;SDS011;45711;50.108;13.712;2022-08-07T12:07:47;4.70;;;0.60;;
59830;SDS011;45711;50.108;13.712;2022-08-07T12:10:21;1.70;;;0.50;;
59830;SDS011;45711;50.108;13.712;2022-08-07T12:12:52;1.20;;;0.60;;
59830;SDS011;45711;50.108;13.712;2022-08-07T12:15:21;1.20;;;0.52;;
59830;SDS011;45711;50.108;13.712;2022-08-07T12:17:52;3.70;;;0.50;;
59830;SDS011;45711;50.108;13.712;2022-08-07T12:20:22;0.77;;;0.50;;
59830;SDS011;45711;50.108;13.712;2022-08-07T12:22:55;1.52;;;0.65;;
59830;SDS011;45711;50.108;13.712;2022-08-07T12:25:40;2.33;;;0.70;;
59830;SDS011;45711;50.108;13.712;2022-08-07T12:28:20;2.35;;;0.50;;
59830;SDS011;45711;50.108;13.712;2022-08-07T12:30:52;2.42;;;0.57;;
59830;SDS011;45711;50.108;13.712;2022-08-07T12:33:22;1.27;;;0.50;;
59830;SDS011;45711;50.108;13.712;2022-08-07T12:35:52;1.83;;;0.70;;
59830;SDS011;45711;50.108;13.712;2022-08-07T12:38:19;1.65;;;0.70;;
59830;SDS011;45711;50.108;13.712;2022-08-07T12:40:47;3.42;;;0.63;;
59830;SDS011;45711;50.108;13.712;2022-08-07T12:43:15;1.90;;;0.60;;
59830;SDS011;45711;50.108;13.712;2022-08-07T12:45:44;1.48;;;0.60;;
59830;SDS011;45711;50.108;13.712;2022-08-07T12:48:17;1.17;;;0.50;;
59830;SDS011;45711;50.108;13.712;2022-08-07T12:50:58;1.08;;;0.65;;
59830;SDS011;45711;50.108;13.712;2022-08-07T12:53:29;6.60;;;0.70;;
59830;SDS011;45711;50.108;13.712;2022-08-07T12:56:01;3.03;;;0.60;;
59830;SDS011;45711;50.108;13.712;2022-08-07T12:58:35;3.38;;;0.70;;
59830;SDS011;45711;50.108;13.712;2022-08-07T13:01:07;2.67;;;0.60;;
59830;SDS011;45711;50.108;13.712;2022-08-07T13:03:53;4.93;;;0.50;;
59830;SDS011;45711;50.108;13.712;2022-08-07T13:06:33;5.32;;;0.57;;
59830;SDS011;45711;50.108;13.712;2022-08-07T13:09:26;0.85;;;0.50;;
59830;SDS011;45711;50.108;13.712;2022-08-07T13:12:10;2.00;;;0.63;;
59830;SDS011;45711;50.108;13.712;2022-08-07T13:14:45;1.35;;;0.57;;
59830;SDS011;45711;50.108;13.712;2022-08-07T13:17:22;1.63;;;0.45;;
59830;SDS011;45711;50.108;13.712;2022-08-07T13:19:59;1.20;;;0.60;;
59830;SDS011;45711;50.108;13.712;2022-08-07T13:22:33;1.15;;;0.52;;
59830;SDS011;45711;50.108;13.712;2022-08-07T13:25:05;2.05;;;0.60;;
59830;SDS011;45711;50.108;13.712;2022-08-07T13:27:35;1.63;;;0.70;;
59830;SDS011;45711;50.108;13.712;2022-08-07T13:30:04;1.90;;;0.50;;
59830;SDS011;45711;50.108;13.712;2022-08-07T13:32:36;1.85;;;0.68;;
59830;SDS011;45711;50.108;13.712;2022-08-07T13:35:11;2.72;;;0.50;;
59830;SDS011;45711;50.108;13.712;2022-08-07T13:37:46;5.63;;;1.10;;
59830;SDS011;45711;50.108;13.712;2022-08-07T13:40:21;2.95;;;0.73;;
59830;SDS011;45711;50.108;13.712;2022-08-07T13:42:51;2.53;;;0.50;;
59830;SDS011;45711;50.108;13.712;2022-08-07T13:45:20;3.50;;;0.75;;
59830;SDS011;45711;50.108;13.712;2022-08-07T13:47:49;4.47;;;0.85;;
59830;SDS011;45711;50.108;13.712;2022-08-07T13:50:18;5.35;;;1.10;;
59830;SDS011;45711;50.108;13.712;2022-08-07T13:52:46;1.80;;;0.60;;
59830;SDS011;45711;50.108;13.712;2022-08-07T13:55:20;2.60;;;0.60;;
59830;SDS011;45711;50.108;13.712;2022-08-07T13:57:48;5.80;;;1.20;;
59830;SDS011;45711;50.108;13.712;2022-08-07T14:00:16;1.90;;;0.98;;
59830;SDS011;45711;50.108;13.712;2022-08-07T14:02:45;3.50;;;0.65;;
59830;SDS011;45711;50.108;13.712;2022-08-07T14:05:18;3.75;;;0.50;;
59830;SDS011;45711;50.108;13.712;2022-08-07T14:07:50;3.15;;;0.50;;
59830;SDS011;45711;50.108;13.712;2022-08-07T14:10:18;2.38;;;0.55;;
59830;SDS011;45711;50.108;13.712;2022-08-07T14:12:44;6.10;;;0.60;;
59830;SDS011;45711;50.108;13.712;2022-08-07T14:15:25;2.22;;;0.95;;
59830;SDS011;45711;50.108;13.712;2022-08-07T14:17:55;2.25;;;0.85;;
59830;SDS011;45711;50.108;13.712;2022-08-07T14:20:30;4.55;;;0.60;;
59830;SDS011;45711;50.108;13.712;2022-08-07T14:23:00;4.53;;;0.80;;
59830;SDS011;45711;50.108;13.712;2022-08-07T14:25:35;1.40;;;0.52;;
59830;SDS011;45711;50.108;13.712;2022-08-07T14:28:08;3.05;;;0.70;;
59830;SDS011;45711;50.108;13.712;2022-08-07T14:30:43;1.63;;;0.52;;
59830;SDS011;45711;50.108;13.712;2022-08-07T14:33:11;1.98;;;0.65;;
59830;SDS011;45711;50.108;13.712;2022-08-07T14:35:40;4.90;;;0.57;;
59830;SDS011;45711;50.108;13.712;2022-08-07T14:38:07;6.57;;;0.88;;
59830;SDS011;45711;50.108;13.712;2022-08-07T14:40:33;5.65;;;0.73;;
59830;SDS011;45711;50.108;13.712;2022-08-07T14:43:00;7.22;;;0.88;;
59830;SDS011;45711;50.108;13.712;2022-08-07T14:45:32;4.22;;;0.40;;
59830;SDS011;45711;50.108;13.712;2022-08-07T14:48:04;8.95;;;0.70;;
59830;SDS011;45711;50.108;13.712;2022-08-07T14:50:46;4.70;;;0.70;;
59830;SDS011;45711;50.108;13.712;2022-08-07T14:53:14;1.58;;;0.65;;
59830;SDS011;45711;50.108;13.712;2022-08-07T14:55:44;2.40;;;0.60;;
59830;SDS011;45711;50.108;13.712;2022-08-07T14:58:12;3.00;;;0.60;;
59830;SDS011;45711;50.108;13.712;2022-08-07T15:00:40;4.63;;;0.52;;
59830;SDS011;45711;50.108;13.712;2022-08-07T15:03:07;2.33;;;0.70;;
59830;SDS011;45711;50.108;13.712;2022-08-07T15:05:35;2.45;;;0.70;;
59830;SDS011;45711;50.108;13.712;2022-08-07T15:08:05;1.05;;;0.70;;
59830;SDS011;45711;50.108;13.712;2022-08-07T15:10:38;4.97;;;0.60;;